Time;durP1;ratioP1;P1;durP2;ratioP2;P2;SDS_P1;SDS_P2;PMS_P1;PMS_P2;Temp;Humidity;BMP_temperature;BMP_pressure;BME280_temperature;BME280_humidity;BME280_pressure;Samples;Min_cycle;Max_cycle;Signal;HPM_P1;HPM_P2
2020/12/05 00:02:29;;;;;;;58.28;29.50;;;;;;;2.42;100.00;98007.09;10493468;28;20095;-71
2020/12/05 00:07:30;;;;;;;58.40;28.30;;;;;;;2.38;100.00;98000.47;10495223;28;20045;-71
2020/12/05 00:12:31;;;;;;;58.47;28.42;;;;;;;2.36;100.00;98002.31;10495016;28;20101;-71
2020/12/05 00:17:32;;;;;;;64.10;29.58;;;;;;;2.37;100.00;97996.22;10494389;28;20052;-71
2020/12/05 00:22:33;;;;;;;57.58;28.58;;;;;;;2.39;100.00;98025.34;10494719;28;20523;-70
2020/12/05 00:27:34;;;;;;;63.10;29.35;;;;;;;2.33;100.00;98018.00;10500471;28;20128;-70
2020/12/05 00:32:35;;;;;;;60.63;29.27;;;;;;;2.36;100.00;98032.44;10534376;28;20151;-70
2020/12/05 00:37:36;;;;;;;67.38;30.70;;;;;;;2.32;100.00;98026.66;10518049;28;20048;-70
2020/12/05 00:42:37;;;;;;;60.55;28.92;;;;;;;2.31;100.00;98035.31;10535010;28;20063;-71
2020/12/05 00:47:38;;;;;;;63.88;31.15;;;;;;;2.26;100.00;98029.59;10535635;28;20051;-71
2020/12/05 00:52:39;;;;;;;63.45;29.40;;;;;;;2.23;100.00;98037.50;10535070;28;20680;-71
2020/12/05 00:57:40;;;;;;;64.25;31.08;;;;;;;2.22;100.00;98022.94;10535155;28;20048;-71
2020/12/05 01:02:41;;;;;;;65.40;29.50;;;;;;;2.18;100.00;98033.53;10533874;28;20052;-71
2020/12/05 01:07:42;;;;;;;63.38;31.10;;;;;;;2.19;100.00;98043.75;10535121;28;20833;-71
2020/12/05 01:12:43;;;;;;;62.17;30.75;;;;;;;2.22;100.00;98053.06;10533928;28;20051;-71
2020/12/05 01:17:44;;;;;;;63.10;30.63;;;;;;;2.26;100.00;98062.28;10534494;28;20131;-71
2020/12/05 01:22:44;;;;;;;63.30;29.98;;;;;;;2.30;100.00;98080.09;10534064;28;20052;-71
2020/12/05 01:27:45;;;;;;;66.68;31.05;;;;;;;2.30;100.00;98066.34;10534110;28;20059;-71
2020/12/05 01:32:46;;;;;;;69.43;30.65;;;;;;;2.26;100.00;98076.03;10533405;28;20190;-71
2020/12/05 01:37:47;;;;;;;60.83;30.48;;;;;;;2.30;100.00;98084.41;10534185;28;20046;-70
2020/12/05 01:42:52;;;;;;;69.00;30.05;;;;;;;2.37;100.00;98084.00;10533474;28;20510;-70
2020/12/05 01:47:53;;;;;;;61.88;31.15;;;;;;;2.36;100.00;98082.31;10534199;28;20085;-70
2020/12/05 01:52:54;;;;;;;57.90;29.65;;;;;;;2.36;100.00;98084.91;10533594;28;20047;-71
2020/12/05 01:57:55;;;;;;;63.88;29.30;;;;;;;2.30;100.00;98089.59;10533145;28;20048;-71
2020/12/05 02:02:56;;;;;;;62.40;29.20;;;;;;;2.40;100.00;98112.19;10532648;28;20052;-71
2020/12/05 02:08:23;;;;;;;61.67;30.15;;;;;;;2.41;100.00;98113.88;10533034;28;20552;-71
2020/12/05 02:13:30;;;;;;;58.38;29.83;;;;;;;2.46;100.00;98114.44;10533706;28;20506;-71
2020/12/05 02:18:34;;;;;;;61.40;30.42;;;;;;;2.52;100.00;98131.31;10532699;28;20048;-71
2020/12/05 02:23:35;;;;;;;63.95;29.60;;;;;;;2.53;100.00;98133.81;10533329;28;20044;-71
2020/12/05 02:28:36;;;;;;;65.43;30.52;;;;;;;2.61;100.00;98148.84;10525740;28;20044;-71
2020/12/05 02:33:37;;;;;;;64.07;30.75;;;;;;;2.67;100.00;98161.41;10517631;28;20162;-71
2020/12/05 02:38:41;;;;;;;62.15;29.10;;;;;;;2.68;100.00;98186.31;10502618;28;20052;-71
2020/12/05 02:43:42;;;;;;;62.35;29.27;;;;;;;2.70;100.00;98171.53;10498106;28;20053;-71
2020/12/05 02:48:43;;;;;;;64.13;30.52;;;;;;;2.70;100.00;98191.38;10480698;28;20052;-71
2020/12/05 02:53:44;;;;;;;62.10;29.00;;;;;;;2.68;100.00;98200.97;10497706;28;20059;-71
2020/12/05 02:58:45;;;;;;;57.78;28.00;;;;;;;2.68;100.00;98213.91;10497967;28;20522;-71
2020/12/05 03:03:46;;;;;;;61.75;30.02;;;;;;;2.78;100.00;98230.53;10479071;28;20040;-71
2020/12/05 03:08:47;;;;;;;58.42;28.10;;;;;;;2.82;100.00;98250.94;10497532;28;20048;-71
2020/12/05 03:13:48;;;;;;;53.38;26.95;;;;;;;2.91;100.00;98273.63;10497028;28;20484;-71
2020/12/05 03:18:49;;;;;;;57.95;28.15;;;;;;;3.05;100.00;98275.41;10497166;28;20052;-72
2020/12/05 03:23:50;;;;;;;52.80;26.00;;;;;;;3.04;100.00;98276.38;10497029;28;20044;-71
2020/12/05 03:28:51;;;;;;;52.63;26.33;;;;;;;3.10;100.00;98255.31;10496503;28;20076;-71
2020/12/05 03:33:52;;;;;;;48.47;24.85;;;;;;;3.14;100.00;98269.75;10524055;28;20079;-70
2020/12/05 03:38:53;;;;;;;50.28;24.83;;;;;;;3.15;100.00;98286.88;10537972;28;20185;-70
2020/12/05 03:43:54;;;;;;;47.35;25.05;;;;;;;3.27;100.00;98312.03;10537919;28;20048;-71
2020/12/05 03:48:55;;;;;;;42.40;22.92;;;;;;;3.27;100.00;98304.28;10537756;28;20044;-71
2020/12/05 03:53:56;;;;;;;41.92;21.33;;;;;;;3.33;100.00;98280.66;10537413;28;20126;-71
2020/12/05 03:58:57;;;;;;;35.30;19.83;;;;;;;3.35;100.00;98278.81;10537464;28;20084;-71
2020/12/05 04:03:58;;;;;;;32.28;17.52;;;;;;;3.39;100.00;98276.88;10536570;28;20423;-71
2020/12/05 04:08:59;;;;;;;30.10;17.80;;;;;;;3.38;100.00;98288.97;10536705;28;20055;-71
2020/12/05 04:14:00;;;;;;;25.95;14.80;;;;;;;3.43;100.00;98312.81;10536833;28;20044;-71
2020/12/05 04:19:02;;;;;;;20.95;12.10;;;;;;;3.37;100.00;98320.09;10536704;28;20058;-71
2020/12/05 04:24:03;;;;;;;16.30;10.25;;;;;;;3.37;100.00;98351.94;10536201;28;20101;-71
2020/12/05 04:29:04;;;;;;;16.13;9.70;;;;;;;3.35;100.00;98360.72;10505012;28;20102;-71
2020/12/05 04:34:05;;;;;;;15.18;9.35;;;;;;;3.35;100.00;98356.38;10492763;28;20123;-71
2020/12/05 04:39:05;;;;;;;14.50;8.70;;;;;;;3.33;100.00;98319.44;10493935;28;20045;-71
2020/12/05 04:44:08;;;;;;;13.23;8.07;;;;;;;3.29;100.00;98338.66;10493731;28;20048;-72
2020/12/05 04:49:10;;;;;;;13.73;8.10;;;;;;;3.21;100.00;98322.72;10475277;28;20094;-71
2020/12/05 04:54:11;;;;;;;13.45;8.10;;;;;;;3.18;100.00;98366.84;10493449;28;20082;-71
2020/12/05 04:59:12;;;;;;;11.75;7.13;;;;;;;3.24;100.00;98415.63;10493019;28;20083;-72
2020/12/05 05:04:13;;;;;;;10.90;6.03;;;;;;;3.22;100.00;98448.47;10491964;28;20678;-71
2020/12/05 05:09:13;;;;;;;8.57;5.13;;;;;;;3.12;100.00;98487.84;10492741;28;20484;-71
2020/12/05 05:14:14;;;;;;;7.78;4.20;;;;;;;3.10;100.00;98500.03;10492764;28;20139;-71
2020/12/05 05:19:21;;;;;;;8.95;5.13;;;;;;;3.11;100.00;98486.16;10492690;28;20051;-72
2020/12/05 05:24:22;;;;;;;7.97;4.63;;;;;;;2.94;100.00;98479.34;10492241;28;20057;-71
2020/12/05 05:29:29;;;;;;;8.30;4.03;;;;;;;2.98;100.00;98473.09;10492023;28;20064;-71
2020/12/05 05:34:30;;;;;;;;;;;;;;;2.94;100.00;98471.59;10491692;28;20049;-71
2020/12/05 05:39:43;;;;;;;9.02;4.93;;;;;;;2.89;100.00;98476.19;10491890;28;19924;-71
2020/12/05 05:44:44;;;;;;;7.90;4.07;;;;;;;2.80;100.00;98489.56;10492761;28;20056;-71
2020/12/05 05:49:44;;;;;;;7.90;4.10;;;;;;;2.85;100.00;98491.00;10491808;28;20056;-71
2020/12/05 05:54:53;;;;;;;8.13;4.28;;;;;;;2.83;100.00;98504.91;10491887;28;20049;-71
2020/12/05 05:59:54;;;;;;;7.70;3.85;;;;;;;2.80;100.00;98511.06;10491404;28;20052;-71
2020/12/05 06:04:54;;;;;;;8.02;4.20;;;;;;;2.71;100.00;98539.97;10499134;28;20052;-71
2020/12/05 06:09:55;;;;;;;10.15;5.30;;;;;;;2.71;100.00;98549.47;10499648;28;20420;-71
2020/12/05 06:14:56;;;;;;;8.63;3.53;;;;;;;2.73;100.00;98569.16;10500016;28;20044;-72
2020/12/05 06:19:57;;;;;;;8.45;4.18;;;;;;;2.79;100.00;98579.19;10501810;28;20119;-71
2020/12/05 06:25:08;;;;;;;6.78;3.10;;;;;;;2.74;100.00;98562.25;10499602;28;20493;-71
2020/12/05 06:30:10;;;;;;;6.00;2.92;;;;;;;2.73;100.00;98570.91;10497863;28;20052;-71
2020/12/05 06:35:17;;;;;;;5.90;2.90;;;;;;;2.70;100.00;98569.28;10498920;28;20056;-71
2020/12/05 06:40:19;;;;;;;7.53;3.33;;;;;;;2.65;100.00;98588.53;10498354;28;20110;-72
2020/12/05 06:45:26;;;;;;;6.80;3.50;;;;;;;2.58;100.00;98600.94;10498257;28;20101;-72
2020/12/05 06:50:35;;;;;;;6.70;3.22;;;;;;;2.54;100.00;98600.22;10498229;28;20052;-71
2020/12/05 06:55:35;;;;;;;7.95;3.75;;;;;;;2.39;100.00;98603.59;10497990;28;20056;-71
2020/12/05 07:00:38;;;;;;;6.10;3.15;;;;;;;2.37;100.00;98615.75;10497281;28;20589;-71
2020/12/05 07:05:45;;;;;;;8.20;3.53;;;;;;;2.34;100.00;98622.78;10512699;28;20445;-71
2020/12/05 07:11:09;;;;;;;7.20;3.30;;;;;;;2.29;100.00;98655.72;10487622;28;20040;-71
2020/12/05 07:16:13;;;;;;;8.48;3.65;;;;;;;2.27;100.00;98637.75;10484448;28;20460;-71
2020/12/05 07:21:15;;;;;;;8.68;4.30;;;;;;;2.17;100.00;98659.78;10494346;28;20499;-71
2020/12/05 07:26:16;;;;;;;9.20;4.63;;;;;;;2.21;100.00;98661.28;10539221;28;20556;-71
2020/12/05 07:31:18;;;;;;;9.30;4.50;;;;;;;2.25;100.00;98664.53;10537716;28;20454;-70
2020/12/05 07:36:19;;;;;;;9.13;5.20;;;;;;;2.34;100.00;98670.09;10539117;28;20097;-71
2020/12/05 07:41:20;;;;;;;14.10;6.85;;;;;;;2.40;100.00;98680.13;10498633;28;20044;-71
2020/12/05 07:46:21;;;;;;;11.50;6.32;;;;;;;2.49;100.00;98704.66;10496996;28;20048;-71
2020/12/05 07:51:22;;;;;;;12.25;7.38;;;;;;;2.51;100.00;98677.88;10496443;28;20048;-70
2020/12/05 07:56:25;;;;;;;28.23;10.70;;;;;;;2.59;100.00;98691.22;10496351;28;20103;-70
2020/12/05 08:01:56;;;;;;;32.28;11.10;;;;;;;2.69;100.00;98695.94;10495623;28;20057;-71
2020/12/05 08:07:31;;;;;;;13.80;7.68;;;;;;;2.75;100.00;98706.78;10496172;28;20455;-70
2020/12/05 08:12:45;;;;;;;11.65;6.25;;;;;;;2.82;100.00;98725.41;10510938;28;20047;-70
2020/12/05 08:17:49;;;;;;;10.90;6.43;;;;;;;2.84;100.00;98716.69;10533900;28;20074;-70
2020/12/05 08:22:50;;;;;;;9.02;5.15;;;;;;;2.83;100.00;98724.50;10520887;28;20500;-70
2020/12/05 08:27:53;;;;;;;17.63;9.98;;;;;;;2.89;100.00;98732.81;10515342;28;20123;-70
2020/12/05 08:33:02;;;;;;;15.77;9.73;;;;;;;2.94;100.00;98737.75;10513186;28;20649;-70
2020/12/05 08:38:03;;;;;;;18.75;8.77;;;;;;;2.91;100.00;98749.06;10513623;28;20102;-71
2020/12/05 08:43:04;;;;;;;14.45;8.15;;;;;;;2.84;100.00;98747.69;10515374;28;20044;-71
2020/12/05 08:48:19;;;;;;;15.57;8.88;;;;;;;2.80;100.00;98727.22;10513613;28;20090;-71
2020/12/05 08:53:21;;;;;;;14.55;7.57;;;;;;;2.76;100.00;98728.31;10512936;28;20495;-71
2020/12/05 08:58:22;;;;;;;12.05;5.68;;;;;;;2.82;100.00;98735.75;10512902;28;20511;-71
2020/12/05 09:03:23;;;;;;;9.52;5.60;;;;;;;2.91;100.00;98743.03;10513736;28;20036;-70
2020/12/05 09:08:25;;;;;;;12.02;6.95;;;;;;;2.99;100.00;98738.34;10511824;28;20123;-70
2020/12/05 09:13:26;;;;;;;12.35;8.07;;;;;;;3.04;100.00;98754.47;10502467;28;20659;-70
2020/12/05 09:18:39;;;;;;;9.43;5.45;;;;;;;3.04;100.00;98759.63;10517148;28;20044;-69
2020/12/05 09:23:40;;;;;;;11.30;6.32;;;;;;;3.18;100.00;98761.50;10534654;28;20117;-70
2020/12/05 09:28:41;;;;;;;22.60;12.15;;;;;;;3.25;100.00;98774.03;10534575;28;20071;-69
2020/12/05 09:33:45;;;;;;;17.50;10.07;;;;;;;3.40;100.00;98777.63;10533440;28;20155;-69
2020/12/05 09:38:46;;;;;;;15.48;8.38;;;;;;;3.44;100.00;98794.63;10514940;28;20076;-69
2020/12/05 09:43:47;;;;;;;14.48;7.72;;;;;;;3.48;100.00;98803.91;10475063;28;20133;-69
2020/12/05 09:48:48;;;;;;;12.68;7.95;;;;;;;3.58;100.00;98797.34;10493102;28;20036;-69
2020/12/05 09:53:49;;;;;;;11.07;6.55;;;;;;;3.61;100.00;98791.16;10475960;28;20059;-70
2020/12/05 09:58:50;;;;;;;11.77;6.10;;;;;;;3.67;100.00;98788.25;10496962;28;20062;-69
2020/12/05 10:03:50;;;;;;;11.57;6.05;;;;;;;3.65;100.00;98790.13;10502696;22;20128;-71
2020/12/05 10:08:51;;;;;;;10.43;6.20;;;;;;;3.66;100.00;98815.03;10491109;28;20050;-71
2020/12/05 10:13:52;;;;;;;12.32;7.28;;;;;;;3.75;100.00;98805.09;10429688;28;20049;-71
2020/12/05 10:18:53;;;;;;;13.02;6.78;;;;;;;3.73;100.00;98806.06;10430242;28;20041;-71
2020/12/05 10:23:54;;;;;;;11.95;6.72;;;;;;;3.78;100.00;98825.63;10432003;28;20060;-71
2020/12/05 10:28:55;;;;;;;14.02;8.80;;;;;;;3.91;100.00;98806.88;10431976;28;20180;-72
2020/12/05 10:33:56;;;;;;;15.25;8.63;;;;;;;3.88;100.00;98831.16;10389882;28;20107;-71
2020/12/05 10:38:57;;;;;;;16.13;9.75;;;;;;;3.96;100.00;98818.66;10408970;28;20057;-71
2020/12/05 10:43:58;;;;;;;14.52;9.05;;;;;;;3.92;100.00;98819.72;10408185;28;20049;-69
2020/12/05 10:48:59;;;;;;;15.77;9.70;;;;;;;4.06;100.00;98811.25;10412686;28;20096;-69
2020/12/05 10:54:00;;;;;;;12.18;7.68;;;;;;;4.07;100.00;98826.66;10415397;28;20072;-71
2020/12/05 10:59:01;;;;;;;13.95;8.23;;;;;;;4.07;100.00;98820.66;10416392;28;20041;-69
2020/12/05 11:04:02;;;;;;;10.95;6.25;;;;;;;4.13;100.00;98818.56;10436157;28;20053;-70
2020/12/05 11:09:03;;;;;;;10.52;5.78;;;;;;;4.26;100.00;98824.78;10456629;28;20108;-70
2020/12/05 11:14:04;;;;;;;10.07;6.18;;;;;;;4.30;100.00;98823.69;10455688;28;20045;-70
2020/12/05 11:19:04;;;;;;;8.43;5.57;;;;;;;4.26;100.00;98842.91;10438311;28;20049;-70
2020/12/05 11:24:05;;;;;;;11.52;6.93;;;;;;;4.32;100.00;98847.75;10455376;28;20057;-70
2020/12/05 11:29:07;;;;;;;10.73;6.88;;;;;;;4.42;100.00;98855.03;10455835;28;20094;-70
2020/12/05 11:34:11;;;;;;;14.45;9.18;;;;;;;4.37;100.00;98844.09;10454482;28;20522;-70
2020/12/05 11:39:12;;;;;;;12.25;7.13;;;;;;;4.34;100.00;98844.25;10456164;28;20049;-70
2020/12/05 11:44:12;;;;;;;12.40;6.57;;;;;;;4.34;100.00;98828.69;10455748;28;20045;-70
2020/12/05 11:49:13;;;;;;;10.57;6.22;;;;;;;4.35;100.00;98841.56;10455197;28;20084;-70
2020/12/05 11:54:14;;;;;;;16.33;7.93;;;;;;;4.25;100.00;98830.88;10437284;28;20055;-71
2020/12/05 11:59:15;;;;;;;17.92;9.10;;;;;;;4.28;100.00;98835.88;10454112;28;20560;-71
2020/12/05 12:04:17;;;;;;;11.93;7.35;;;;;;;4.27;100.00;98833.38;10453296;28;20060;-70
2020/12/05 12:09:18;;;;;;;12.25;6.05;;;;;;;4.07;100.00;98825.81;10454978;28;20500;-70
2020/12/05 12:14:19;;;;;;;15.38;8.30;;;;;;;4.18;100.00;98823.50;10453729;28;20463;-70
2020/12/05 12:19:20;;;;;;;9.73;5.72;;;;;;;4.21;100.00;98829.38;10454769;28;20049;-70
2020/12/05 12:24:23;;;;;;;13.35;7.85;;;;;;;4.25;99.79;98841.25;10453802;28;20106;-70
2020/12/05 12:29:24;;;;;;;10.85;6.43;;;;;;;4.20;100.00;98834.63;10455309;28;20049;-70
2020/12/05 12:34:25;;;;;;;11.57;6.85;;;;;;;4.12;100.00;98829.84;10452331;28;20119;-70
2020/12/05 12:39:26;;;;;;;11.10;6.82;;;;;;;4.19;100.00;98835.53;10420006;28;20165;-70
2020/12/05 12:44:27;;;;;;;14.23;8.32;;;;;;;4.18;100.00;98833.88;10422675;28;20045;-70
2020/12/05 12:49:36;;;;;;;14.32;8.23;;;;;;;4.13;100.00;98833.28;10414490;28;20604;-70
2020/12/05 12:54:37;;;;;;;15.20;8.77;;;;;;;4.22;100.00;98835.38;10394187;28;20107;-69
2020/12/05 12:59:38;;;;;;;11.02;7.18;;;;;;;4.30;100.00;98822.84;10393946;28;20049;-70
2020/12/05 13:04:39;;;;;;;10.23;6.55;;;;;;;4.41;100.00;98814.50;10420775;28;20103;-70
2020/12/05 13:09:40;;;;;;;12.38;7.45;;;;;;;4.43;100.00;98838.56;10450575;28;20049;-70
2020/12/05 13:14:41;;;;;;;14.57;10.15;;;;;;;4.55;100.00;98858.63;10419450;28;20058;-70
2020/12/05 13:19:42;;;;;;;13.93;8.63;;;;;;;4.42;100.00;98855.03;10410735;28;20096;-70
2020/12/05 13:24:43;;;;;;;16.60;9.40;;;;;;;4.30;100.00;98862.53;10439487;28;20059;-71
2020/12/05 13:29:45;;;;;;;15.70;10.07;;;;;;;4.34;99.76;98846.84;10450987;28;20044;-71
2020/12/05 13:34:45;;;;;;;16.05;9.02;;;;;;;4.32;100.00;98861.63;10432524;28;20056;-71
2020/12/05 13:39:46;;;;;;;17.70;10.55;;;;;;;4.32;100.00;98860.69;10421435;28;20049;-71
2020/12/05 13:44:47;;;;;;;16.58;10.52;;;;;;;4.36;99.71;98857.97;10417821;28;20099;-72
2020/12/05 13:49:50;;;;;;;18.33;10.60;;;;;;;4.23;100.00;98845.66;10459086;28;20041;-71
2020/12/05 13:54:51;;;;;;;23.13;14.63;;;;;;;4.28;100.00;98841.06;10445407;28;20041;-71
2020/12/05 13:59:51;;;;;;;16.80;10.93;;;;;;;4.20;99.58;98848.41;10468148;28;20057;-71
2020/12/05 14:04:52;;;;;;;19.52;11.50;;;;;;;4.09;100.00;98850.72;10479758;28;20389;-71
2020/12/05 14:09:53;;;;;;;21.77;13.38;;;;;;;4.10;99.91;98836.88;10473943;28;20113;-71
2020/12/05 14:14:54;;;;;;;24.55;14.60;;;;;;;3.99;100.00;98828.84;10467645;28;20550;-71
2020/12/05 14:19:56;;;;;;;21.02;13.15;;;;;;;4.01;99.81;98823.59;10473933;28;20044;-72
2020/12/05 14:24:57;;;;;;;22.38;14.23;;;;;;;3.95;100.00;98826.50;10475326;28;20059;-71
2020/12/05 14:29:58;;;;;;;24.80;14.07;;;;;;;3.96;100.00;98838.53;10477616;28;20041;-71
2020/12/05 14:34:59;;;;;;;20.90;14.05;;;;;;;3.65;100.00;98821.16;10488540;28;20069;-71
2020/12/05 14:40:00;;;;;;;28.48;15.55;;;;;;;3.57;100.00;98821.53;10506264;28;20041;-70
2020/12/05 14:45:03;;;;;;;27.75;17.02;;;;;;;3.63;100.00;98826.41;10473552;28;20049;-70
2020/12/05 14:50:06;;;;;;;27.90;16.65;;;;;;;3.43;100.00;98818.81;10462832;28;20826;-70
2020/12/05 14:55:06;;;;;;;35.25;19.92;;;;;;;3.40;100.00;98834.50;10458718;28;20094;-71
2020/12/05 15:00:07;;;;;;;31.80;18.20;;;;;;;3.38;100.00;98832.00;10468503;28;20081;-70
2020/12/05 15:05:08;;;;;;;32.20;17.52;;;;;;;3.26;100.00;98824.84;10462077;28;20140;-70
2020/12/05 15:10:09;;;;;;;33.47;17.63;;;;;;;3.28;100.00;98811.84;10483428;28;20040;-70
2020/12/05 15:15:10;;;;;;;33.75;18.13;;;;;;;3.20;100.00;98795.88;10469273;28;20049;-71
2020/12/05 15:20:11;;;;;;;29.95;17.85;;;;;;;3.19;100.00;98810.56;10480837;28;20072;-71
2020/12/05 15:25:13;;;;;;;30.73;17.13;;;;;;;3.18;100.00;98811.47;10480052;28;20109;-71
2020/12/05 15:30:14;;;;;;;28.45;16.65;;;;;;;3.09;100.00;98801.59;10483637;28;20086;-71
2020/12/05 15:35:15;;;;;;;32.58;18.83;;;;;;;3.13;100.00;98799.69;10478399;28;20098;-70
2020/12/05 15:40:16;;;;;;;37.05;20.02;;;;;;;3.08;100.00;98805.06;10475875;28;20055;-71
2020/12/05 15:45:18;;;;;;;30.20;18.73;;;;;;;3.07;100.00;98818.06;10471616;28;20523;-71
2020/12/05 15:50:19;;;;;;;33.35;20.48;;;;;;;3.08;100.00;98822.34;10485845;28;20041;-71
2020/12/05 15:55:20;;;;;;;33.20;19.73;;;;;;;3.02;100.00;98813.13;10476035;28;20049;-71
2020/12/05 16:00:21;;;;;;;35.95;19.63;;;;;;;2.89;100.00;98822.41;10450834;28;20044;-71
2020/12/05 16:05:23;;;;;;;32.20;17.90;;;;;;;2.88;100.00;98821.56;10456346;28;20452;-71
2020/12/05 16:10:23;;;;;;;31.08;16.73;;;;;;;2.93;100.00;98817.00;10479718;28;20049;-71
2020/12/05 16:15:24;;;;;;;31.20;18.00;;;;;;;2.99;100.00;98818.47;10467278;28;20492;-71
2020/12/05 16:20:25;;;;;;;28.42;17.00;;;;;;;2.81;100.00;98809.84;10478894;28;20056;-71
2020/12/05 16:25:26;;;;;;;28.08;16.63;;;;;;;2.76;100.00;98811.81;10475583;28;20135;-71
2020/12/05 16:30:27;;;;;;;30.52;18.38;;;;;;;2.92;100.00;98812.75;10471629;28;20041;-71
2020/12/05 16:35:30;;;;;;;33.50;18.70;;;;;;;2.86;100.00;98815.63;10455579;28;20076;-71
2020/12/05 16:40:31;;;;;;;34.40;20.45;;;;;;;2.79;100.00;98821.16;10437537;28;20109;-71
2020/12/05 16:45:32;;;;;;;27.75;17.35;;;;;;;2.87;100.00;98819.88;10458329;28;20543;-71
2020/12/05 16:50:36;;;;;;;24.25;15.20;;;;;;;2.76;100.00;98796.31;10454260;28;20527;-71
2020/12/05 16:55:37;;;;;;;29.52;17.00;;;;;;;2.78;100.00;98801.41;10454880;28;20115;-71
2020/12/05 17:00:39;;;;;;;36.13;19.65;;;;;;;2.81;100.00;98809.84;10465476;28;20571;-71
2020/12/05 17:05:40;;;;;;;27.08;15.27;;;;;;;2.87;100.00;98803.53;10466363;28;20049;-71
2020/12/05 17:10:41;;;;;;;28.98;16.33;;;;;;;2.82;100.00;98801.19;10451028;28;20041;-70
2020/12/05 17:15:42;;;;;;;33.58;18.15;;;;;;;2.74;100.00;98792.97;10461615;28;20060;-70
2020/12/05 17:20:43;;;;;;;29.77;18.63;;;;;;;2.74;100.00;98815.38;10462404;28;20044;-70
2020/12/05 17:25:44;;;;;;;28.88;18.52;;;;;;;2.79;100.00;98803.94;10453836;28;20045;-70
2020/12/05 17:30:46;;;;;;;27.77;17.20;;;;;;;2.69;100.00;98800.13;10450067;28;20045;-70
2020/12/05 17:36:04;;;;;;;30.73;17.85;;;;;;;2.77;100.00;98803.16;10450747;28;20045;-70
2020/12/05 17:41:05;;;;;;;30.08;16.55;;;;;;;2.69;100.00;98792.38;10436327;28;20057;-70
2020/12/05 17:46:06;;;;;;;30.73;18.15;;;;;;;2.70;100.00;98785.41;10452231;28;20050;-70
2020/12/05 17:51:07;;;;;;;27.65;17.27;;;;;;;2.70;100.00;98786.25;10420213;28;20061;-70
2020/12/05 17:56:08;;;;;;;29.05;16.67;;;;;;;2.77;100.00;98789.41;10430649;28;20118;-70
2020/12/05 18:01:10;;;;;;;32.42;19.55;;;;;;;2.72;100.00;98797.38;10438509;28;20080;-70
2020/12/05 18:06:11;;;;;;;28.88;17.30;;;;;;;2.74;100.00;98811.06;10436618;28;20057;-70
2020/12/05 18:11:13;;;;;;;28.83;17.98;;;;;;;2.74;100.00;98817.97;10419278;28;20409;-70
2020/12/05 18:16:14;;;;;;;29.92;18.85;;;;;;;2.76;100.00;98829.06;10458028;28;20528;-70
2020/12/05 18:21:14;;;;;;;25.95;15.65;;;;;;;2.78;100.00;98825.50;10458339;28;20056;-70
2020/12/05 18:26:16;;;;;;;29.58;17.17;;;;;;;2.77;100.00;98838.47;10458778;28;20048;-70
2020/12/05 18:31:16;;;;;;;31.23;17.02;;;;;;;2.71;100.00;98831.00;10456943;28;20418;-70
2020/12/05 18:36:17;;;;;;;28.30;17.35;;;;;;;2.72;100.00;98822.34;10458629;28;20496;-70
2020/12/05 18:41:19;;;;;;;26.38;16.63;;;;;;;2.72;100.00;98825.78;10440215;28;20398;-70
2020/12/05 18:46:22;;;;;;;26.15;15.70;;;;;;;2.76;100.00;98831.63;10457943;28;20126;-70
2020/12/05 18:51:26;;;;;;;30.63;17.17;;;;;;;2.72;100.00;98825.78;10457322;28;20045;-70
2020/12/05 18:56:28;;;;;;;26.25;16.08;;;;;;;2.79;100.00;98827.19;10493054;28;20110;-70
2020/12/05 19:01:29;;;;;;;29.98;16.73;;;;;;;2.76;100.00;98811.81;10461107;28;20053;-70
2020/12/05 19:06:30;;;;;;;28.33;16.73;;;;;;;2.90;99.69;98795.63;10415850;28;20111;-70
2020/12/05 19:11:31;;;;;;;31.02;17.63;;;;;;;2.83;99.32;98769.28;10421590;28;20110;-70
2020/12/05 19:16:34;;;;;;;29.50;18.08;;;;;;;2.79;99.71;98787.59;10457653;28;20059;-70
2020/12/05 19:21:35;;;;;;;27.92;17.48;;;;;;;2.75;99.96;98786.03;10456025;28;20048;-70
2020/12/05 19:26:37;;;;;;;30.80;17.40;;;;;;;2.73;100.00;98777.53;10456517;28;20056;-70
2020/12/05 19:31:38;;;;;;;30.50;18.35;;;;;;;2.75;99.97;98773.13;10455254;28;20053;-70
2020/12/05 19:36:39;;;;;;;31.70;17.92;;;;;;;2.79;100.00;98774.66;10456283;28;20053;-70
2020/12/05 19:41:40;;;;;;;30.70;17.55;;;;;;;2.71;99.75;98779.34;10437919;28;20044;-70
2020/12/05 19:46:46;;;;;;;30.67;18.02;;;;;;;2.61;100.00;98776.38;10451036;28;20091;-70
2020/12/05 19:51:47;;;;;;;31.05;17.75;;;;;;;2.56;100.00;98783.50;10452223;28;20057;-70
2020/12/05 19:56:48;;;;;;;30.67;17.73;;;;;;;2.68;100.00;98782.09;10452396;28;20166;-70
2020/12/05 20:01:49;;;;;;;29.55;17.42;;;;;;;2.65;100.00;98752.06;10413306;28;20064;-70
2020/12/05 20:06:50;;;;;;;30.40;17.98;;;;;;;2.70;100.00;98760.44;10442723;28;20052;-70
2020/12/05 20:11:51;;;;;;;30.65;18.63;;;;;;;2.56;100.00;98742.19;10449530;28;20053;-70
2020/12/05 20:16:52;;;;;;;34.22;20.05;;;;;;;2.65;100.00;98738.31;10412954;28;20061;-70
2020/12/05 20:21:53;;;;;;;34.63;18.85;;;;;;;2.58;100.00;98725.72;10419707;28;20041;-70
2020/12/05 20:27:01;;;;;;;32.58;19.45;;;;;;;2.55;100.00;98762.00;10432654;28;20086;-70
2020/12/05 20:32:02;;;;;;;29.25;18.15;;;;;;;2.55;100.00;98769.75;10411508;28;20046;-70
2020/12/05 20:37:04;;;;;;;34.65;20.48;;;;;;;2.57;100.00;98770.53;10430938;28;20056;-70
2020/12/05 20:42:05;;;;;;;35.72;18.60;;;;;;;2.52;100.00;98785.41;10434294;28;20564;-70
2020/12/05 20:47:06;;;;;;;33.65;18.77;;;;;;;2.67;100.00;98816.56;10433799;28;20053;-70
2020/12/05 20:52:07;;;;;;;35.55;19.90;;;;;;;2.75;100.00;98829.94;10480370;28;20055;-70
2020/12/05 20:57:08;;;;;;;37.85;19.80;;;;;;;2.75;100.00;98819.63;10457602;28;20049;-70
2020/12/05 21:02:09;;;;;;;34.97;20.50;;;;;;;2.65;100.00;98837.31;10459293;28;20041;-70
2020/12/05 21:07:10;;;;;;;30.67;18.83;;;;;;;2.57;100.00;98835.09;10458428;28;20052;-71
2020/12/05 21:12:12;;;;;;;33.90;20.70;;;;;;;2.61;100.00;98834.94;10443858;28;20057;-70
2020/12/05 21:17:13;;;;;;;38.15;20.75;;;;;;;2.55;100.00;98793.00;10410414;28;20080;-70
2020/12/05 21:22:14;;;;;;;37.42;21.75;;;;;;;2.55;100.00;98774.94;10421297;28;20045;-70
2020/12/05 21:27:15;;;;;;;36.83;21.83;;;;;;;2.56;100.00;98768.00;10417598;28;20045;-70
2020/12/05 21:32:16;;;;;;;36.33;21.10;;;;;;;2.51;100.00;98750.16;10408114;28;20049;-70
2020/12/05 21:37:17;;;;;;;42.50;22.75;;;;;;;2.59;100.00;98748.03;10410543;28;20140;-70
2020/12/05 21:42:21;;;;;;;44.10;23.23;;;;;;;2.63;100.00;98776.31;10415366;28;20099;-70
2020/12/05 21:47:22;;;;;;;36.83;21.63;;;;;;;2.80;100.00;98786.66;10434436;28;20080;-70
2020/12/05 21:52:23;;;;;;;35.58;20.90;;;;;;;2.68;100.00;98787.25;10415142;28;20046;-70
2020/12/05 21:57:24;;;;;;;39.83;21.90;;;;;;;2.75;100.00;98778.28;10432197;28;20056;-70
2020/12/05 22:02:27;;;;;;;45.40;22.88;;;;;;;2.73;100.00;98811.13;10441755;28;20075;-71
2020/12/05 22:07:28;;;;;;;41.15;21.73;;;;;;;2.71;100.00;98828.44;10452571;28;20049;-69
2020/12/05 22:12:29;;;;;;;41.83;22.70;;;;;;;2.83;100.00;98835.59;10436104;28;20585;-69
2020/12/05 22:17:30;;;;;;;44.80;23.23;;;;;;;2.86;100.00;98843.19;10443902;28;20052;-70
2020/12/05 22:22:35;;;;;;;42.25;22.95;;;;;;;2.86;100.00;98845.78;10433251;28;20133;-69
2020/12/05 22:27:37;;;;;;;41.45;23.83;;;;;;;2.89;100.00;98832.72;10451254;28;20052;-69
2020/12/05 22:32:38;;;;;;;41.83;24.13;;;;;;;2.94;99.57;98784.25;10432350;28;20056;-70
2020/12/05 22:37:38;;;;;;;41.60;23.77;;;;;;;2.87;99.96;98777.69;10392160;28;20053;-70
2020/12/05 22:42:39;;;;;;;44.75;23.05;;;;;;;2.81;100.00;98778.00;10410545;28;20493;-70
2020/12/05 22:47:40;;;;;;;45.88;25.05;;;;;;;2.73;100.00;98780.97;10401138;28;20057;-70
2020/12/05 22:52:41;;;;;;;44.85;24.67;;;;;;;2.65;100.00;98712.50;10457933;28;20045;-70
2020/12/05 22:57:42;;;;;;;43.75;24.15;;;;;;;2.69;100.00;98763.13;10440006;28;20056;-71
2020/12/05 23:02:43;;;;;;;49.30;26.65;;;;;;;2.67;100.00;98783.00;10455976;28;20408;-71